• Join FlightAware (Why Join?)
  • Login
  • US Flag 
05:23PM EST


 

Airport Tracker/Info


-or-


 

Live Flight TrackerFlight Track Log ✈ N9464M ✈ 28-Jan-2014 ✈ MYAN / SAQ - KAPF

Flight Track Log - Related Links

Times and Time Zones

All times are in EST time to prevent confusion due to time zone crossing. See the N9464M flight status page for this flight to view local times or setup timezone preferences in your user account.

Time Position Orientation Groundspeed Altitude Reporting Facility
EST Latitude Longitude Course Direction KTS MPH feet Rate Location/Type
11:09AM 25.2069 -78.4000 295° West 169 194 6,400  Level Miami Center
11:10AM 25.2214 -78.4347 295° West 143 165 6,500  Climbing Miami Center
11:11AM 25.2356 -78.4717 293° West 136 157 6,400 -180 Descending Miami Center
11:12AM 25.2497 -78.5086 293° West 131 151 6,200 -240 Descending Miami Center
11:13AM 25.2639 -78.5456 293° West 131 151 6,000 -240 Descending Miami Center
11:14AM 25.2867 -78.5825 304° West 131 151 5,800 -60 Descending Miami Center
11:15AM 25.2925 -78.6147 281° West 131 151 5,900  Climbing Miami Center
11:16AM 25.3128 -78.6564 298° West 131 151 5,800 -120 Descending Miami Center
11:17AM 25.3375 -78.6867 312° West 131 151 5,700  Descending Miami Center
11:18AM 25.3517 -78.7239 293° West 136 157 5,800  Climbing Miami Center
11:19AM 25.3700 -78.7586 300° West 136 157 5,800  Level Miami Center
11:20AM 25.3864 -78.7933 298° West 136 157 5,800  Level Miami Center
11:21AM 25.4069 -78.8236 307° West 136 157 5,800  Level Miami Center
11:22AM 25.4253 -78.8583 300° West 136 157 5,800  Level Miami Center
11:23AM 25.4456 -78.8931 303° West 136 157 5,800  Level Miami Center
11:24AM 25.4639 -78.9258 302° West 131 151 5,800  Level Miami Center
11:25AM 25.4864 -78.9606 306° West 136 157 5,800  Level Miami Center
11:26AM 25.5089 -78.9933 307° West 136 157 5,800  Level Miami Center
11:27AM 25.5272 -79.0281 300° West 136 157 5,800  Level Miami Center
11:28AM 25.5331 -79.0650 280° West 136 157 5,800  Level Miami Center
11:29AM 25.5639 -79.0978 316° Northwest 136 157 5,800  Level Miami Center
11:30AM 25.5842 -79.1306 304° West 136 157 5,800  Level Miami Center
11:31AM 25.5983 -79.1675 293° West 130 150 5,800  Level Miami Center
11:32AM 25.6186 -79.2003 304° West 130 150 5,800  Level Miami Center
11:33AM 25.6347 -79.2375 296° West 130 150 5,800  Level Miami Center
11:34AM 25.6550 -79.2747 301° West 135 155 5,900 60 Climbing Miami Center
11:35AM 25.6733 -79.3097 300° West 135 155 6,000 -300 Climbing Miami Center
11:36AM 25.6914 -79.3492 297° West 140 161 5,400 -600 Descending Miami Center
11:37AM 25.7136 -79.3889 302° West 140 161 4,800 -600 Descending Miami Center
11:38AM 25.7278 -79.4283 292° West 140 161 4,200 -540 Descending Miami Center
11:39AM 25.7561 -79.4728 305° West 146 168 3,800 -180 Descending Miami Center
11:40AM 25.7764 -79.5103 301° West 146 168 3,900  Climbing Miami Center
11:40AM 25.7886 -79.5311 303° West 136 157 3,800 -120 Descending Miami Center
11:41AM 25.7944 -79.5428 299° West 140 161 3,800  Level Miami Center
11:42AM 25.8125 -79.5825 297° West 140 161 3,800 60 Level Miami Center
11:42AM 25.8128 -79.5803 82° East 140 161 3,900  Climbing Miami Center
11:43AM 25.8328 -79.6222 298° West 140 161 3,800  Descending Miami Center
11:43AM 25.8350 -79.6178 61° Northeast 140 161 3,900  Climbing Miami Center
11:43AM 25.8508 -79.6550 295° West 139 160 3,800  Descending Miami Center
11:44AM 25.8553 -79.6528 24° Northeast 140 161 3,900  Climbing Miami Center
11:44AM 25.8733 -79.6900 298° West 139 160 3,800  Descending Miami Center
11:45AM 25.8753 -79.6903 353° North 140 161 3,900  Climbing Miami Center
11:45AM 25.8914 -79.7297 294° West 140 161 3,800  Descending Miami Center
11:46AM 25.8956 -79.7322 332° Northwest 134 154 3,900 60 Climbing Miami Center
11:47AM 25.9156 -79.7697 301° West 139 160 3,900 -120 Level Miami Center
11:47AM 25.9114 -79.7742 224° Southwest 140 161 3,800  Descending Miami Center
11:48AM 25.9358 -79.8072 309° West 139 160 3,900  Climbing Miami Center
11:49AM 25.9433 -79.8489 281° West 134 154 3,900 60 Level Miami Center
11:49AM 25.9453 -79.8444 64° Northeast 133 153 4,000 60 Climbing Miami Center
11:50AM 25.9528 -79.8861 281° West 133 153 4,000 -120 Level Miami Center
11:50AM 25.9564 -79.9256 276° West 138 159 3,800 -180 Descending Miami Center
11:52AM 25.9658 -79.9719 283° West 141 162 3,700  Descending Miami Center
11:53AM 25.9711 -80.0136 278° West 136 157 3,800 120 Climbing Miami Center
11:54AM 25.9786 -80.0508 283° West 133 153 4,000 120 Climbing Miami Center
11:55AM 25.9861 -80.0928 281° West 132 152 4,100 -60 Climbing Miami Center
11:56AM 25.9956 -80.1344 284° West 141 162 3,900 -240 Descending Miami Center
11:57AM 25.9947 -80.1783 269° West 134 154 3,700  Descending Miami Center
11:58AM 25.9956 -80.2247 271° West 132 152 3,900 60 Climbing Miami Center
11:59AM 25.9947 -80.2617 269° West 130 150 3,900 -60 Level Miami Center
12:00PM 25.9939 -80.3056 269° West 137 158 3,800 -60 Descending Miami Center
12:01PM 25.9969 -80.3472 275° West 135 155 3,800 60 Level Miami Center
12:02PM 26.0022 -80.3842 279° West 125 144 4,000  Climbing Miami Center
12:03PM 26.0056 -80.4258 275° West 129 148 3,900 -120 Descending Miami Center
12:04PM 26.0128 -80.4700 280° West 138 159 3,800  Descending Miami Center
12:05PM 26.0139 -80.5142 272° West 129 148 3,900  Climbing Miami Center
12:06PM 26.0189 -80.5558 278° West 138 159 3,900  Level Miami Center
12:07PM 26.0242 -80.6000 278° West 135 155 3,900 -60 Level Miami Center
12:08PM 26.0311 -80.6511 279° West 136 157 3,800 -60 Descending Miami Center
12:09PM 26.0386 -80.6883 283° West 139 160 3,800  Level Miami Center
12:09PM 26.0406 -80.6883 360° North 136 157 3,800  Level Miami Center
12:10PM 26.0439 -80.7253 276° West 136 157 3,800 60 Level Miami Center
12:10PM 26.0478 -80.7300 313° West 136 157 3,900  Climbing Miami Center
12:11PM 26.0636 -80.7653 297° West 136 157 3,800 -60 Descending Miami Center
12:12PM 26.0750 -80.8097 286° West 136 157 3,800  Level Miami Center
12:13PM 26.0822 -80.8492 282° West 136 157 3,900  Climbing Miami Center
12:14PM 26.0833 -80.8908 272° West 136 157 3,900  Level Miami Center
12:15PM 26.0906 -80.9306 281° West 136 157 3,900  Level Miami Center
12:16PM 26.0997 -80.9700 285° West 136 157 3,900 -60 Level Miami Center
12:17PM 26.1050 -81.0119 278° West 136 157 3,800 -60 Descending Miami Center
12:18PM 26.1122 -81.0492 282° West 147 169 3,800  Level Miami Center
12:19PM 26.1214 -81.0889 284° West 142 163 3,900  Climbing Miami Center
12:20PM 26.1244 -81.1281 275° West 142 163 3,900 -60 Level Miami Center
12:21PM 26.1294 -81.1722 277° West 142 163 3,800 -180 Descending Miami Center
12:22PM 26.1325 -81.2142 275° West 142 163 3,600  Descending Miami Center
12:23PM 26.1356 -81.2536 275° West 142 163 3,800 120 Climbing Miami Center
12:24PM 26.1364 -81.2953 271° West 142 163 3,900 -240 Climbing Miami Center
12:25PM 26.1411 -81.3417 276° West 142 163 3,400 -420 Descending Miami Center
12:26PM 26.1458 -81.3881 276° West 147 169 3,100 -300 Descending Miami Center
12:27PM 26.1489 -81.4322 274° West 147 169 2,900 -300 Descending Miami Center
12:28PM 26.1494 -81.4783 271° West 147 169 2,600 -360 Descending Miami Center
12:29PM 26.1500 -81.5225 271° West 147 169 2,200 -300 Descending Miami Center
12:30PM 26.1531 -81.5619 275° West 141 162 2,000 -300 Descending Miami Center
12:31PM 26.1556 -81.6083 273° West 146 168 1,600 -420 Descending Miami Center
12:33PM 26.1390 -81.6641 252° West  Level FlightAware Approximate
12:40PM 26.1500 -81.7667 283° West  Level FlightAware Approximate
12:41PM 26.1524 -81.7756 283° West  Level Estimated
12:42PM 26.1524 -81.7756 283° West  Level Estimated
12:43PM 26.1524 -81.7756 283° West  Level Estimated
12:44PM 26.1524 -81.7756 283° West  Level Estimated